createdAt,value
2022-12-22T00:01:11.968Z,3.78
2022-12-22T00:06:32.622Z,3.10
2022-12-22T00:11:54.860Z,3.58
2022-12-22T00:17:21.918Z,4.15
2022-12-22T00:22:44.442Z,3.83
2022-12-22T00:28:06.683Z,3.78
2022-12-22T00:33:31.927Z,3.00
2022-12-22T00:44:14.272Z,3.85
2022-12-22T00:49:35.164Z,3.08
2022-12-22T00:54:56.308Z,3.55
2022-12-22T01:00:18.290Z,3.10
2022-12-22T01:05:39.449Z,2.60
2022-12-22T01:11:00.047Z,1.90
2022-12-22T01:16:22.368Z,2.38
2022-12-22T01:21:43.473Z,2.03
2022-12-22T01:27:04.113Z,2.13
2022-12-22T01:32:30.568Z,2.65
2022-12-22T01:37:50.948Z,2.63
2022-12-22T01:43:11.486Z,2.80
2022-12-22T01:48:34.662Z,2.03
2022-12-22T01:53:55.439Z,1.90
2022-12-22T01:59:21.315Z,2.30
2022-12-22T02:04:49.138Z,2.20
2022-12-22T02:10:24.026Z,2.40
2022-12-22T02:15:51.279Z,2.20
2022-12-22T02:21:19.534Z,1.85
2022-12-22T02:26:47.826Z,2.47
2022-12-22T02:32:08.674Z,2.38
2022-12-22T02:37:39.028Z,1.88
2022-12-22T02:43:09.004Z,2.10
2022-12-22T02:48:34.867Z,1.90
2022-12-22T02:53:58.185Z,2.33
2022-12-22T02:59:20.261Z,2.15
2022-12-22T03:04:41.044Z,1.80
2022-12-22T03:10:01.766Z,1.88
2022-12-22T03:15:24.955Z,2.63
2022-12-22T03:20:45.452Z,1.63
2022-12-22T03:25:53.030Z,2.40
2022-12-22T03:31:00.512Z,1.83
2022-12-22T03:36:04.455Z,2.17
2022-12-22T03:41:07.743Z,2.40
2022-12-22T03:46:32.700Z,2.35
2022-12-22T03:51:37.103Z,2.50
2022-12-22T03:56:40.547Z,1.75
2022-12-22T04:01:47.369Z,2.78
2022-12-22T04:06:51.205Z,2.70
2022-12-22T04:12:11.901Z,2.92
2022-12-22T04:17:16.601Z,2.70
2022-12-22T04:22:20.036Z,4.00
2022-12-22T04:27:23.517Z,2.10
2022-12-22T04:32:28.434Z,2.63
2022-12-22T04:42:35.468Z,3.08
2022-12-22T04:47:40.626Z,2.83
2022-12-22T04:52:44.126Z,2.90
2022-12-22T04:57:47.575Z,3.55
2022-12-22T05:02:53.869Z,3.00
2022-12-22T05:07:57.327Z,4.13
2022-12-22T05:13:00.884Z,3.22
2022-12-22T05:18:06.063Z,4.63
2022-12-22T05:23:09.397Z,4.57
2022-12-22T05:28:12.936Z,3.58
2022-12-22T05:33:17.722Z,3.92
2022-12-22T05:38:21.194Z,3.83
2022-12-22T05:43:24.720Z,4.25
2022-12-22T05:48:35.297Z,4.55
2022-12-22T05:53:41.329Z,5.60
2022-12-22T05:58:44.828Z,5.03
2022-12-22T06:03:53.226Z,5.57
2022-12-22T06:08:59.672Z,7.28
2022-12-22T06:14:03.011Z,5.57
2022-12-22T06:19:08.320Z,5.07
2022-12-22T06:24:11.875Z,5.60
2022-12-22T06:29:15.384Z,6.47
2022-12-22T06:34:20.417Z,6.53
2022-12-22T06:39:24.078Z,5.18
2022-12-22T06:44:27.439Z,7.00
2022-12-22T06:49:32.314Z,8.02
2022-12-22T06:54:35.818Z,7.32
2022-12-22T06:59:39.288Z,8.57
2022-12-22T07:04:45.631Z,8.10
2022-12-22T07:09:49.199Z,9.65
2022-12-22T07:14:52.641Z,9.35
2022-12-22T07:19:57.376Z,7.70
2022-12-22T07:25:00.677Z,10.65
2022-12-22T07:30:04.041Z,9.40
2022-12-22T07:35:10.080Z,9.52
2022-12-22T07:40:13.851Z,9.95
2022-12-22T07:45:19.114Z,10.32
2022-12-22T07:50:28.199Z,10.82
2022-12-22T07:55:36.634Z,10.15
2022-12-22T08:00:39.975Z,10.15
2022-12-22T08:05:45.845Z,9.68
2022-12-22T08:10:49.179Z,13.27
2022-12-22T08:15:52.668Z,12.85
2022-12-22T08:20:57.612Z,12.02
2022-12-22T08:31:08.785Z,11.98
2022-12-22T08:36:14.293Z,13.93
2022-12-22T08:41:39.514Z,14.45
2022-12-22T08:46:43.083Z,15.02
2022-12-22T08:51:48.567Z,16.25
2022-12-22T08:56:53.173Z,21.50
2022-12-22T09:01:56.768Z,17.40
2022-12-22T09:07:02.769Z,16.77
2022-12-22T09:12:06.779Z,19.55
2022-12-22T09:17:10.127Z,18.50
2022-12-22T09:22:15.001Z,16.77
2022-12-22T09:32:21.735Z,17.95
2022-12-22T09:37:26.559Z,19.50
2022-12-22T09:42:35.321Z,21.08
2022-12-22T09:47:40.823Z,16.52
2022-12-22T09:52:50.291Z,21.48
2022-12-22T09:57:55.594Z,17.83
2022-12-22T10:03:06.426Z,18.83
2022-12-22T10:08:14.855Z,18.25
2022-12-22T10:13:19.847Z,19.38
2022-12-22T10:18:25.871Z,19.77
2022-12-22T10:23:32.019Z,20.83
2022-12-22T10:28:39.645Z,20.67
2022-12-22T10:33:47.380Z,22.75
2022-12-22T10:39:00.171Z,17.13
2022-12-22T10:44:07.857Z,19.85
2022-12-22T10:49:18.624Z,26.60
2022-12-22T10:54:32.239Z,20.85
2022-12-22T10:59:35.985Z,21.63
2022-12-22T11:04:39.320Z,23.30
2022-12-22T11:09:44.333Z,16.85
2022-12-22T11:14:56.319Z,26.08
2022-12-22T11:20:18.210Z,21.58
2022-12-22T11:25:33.131Z,25.23
2022-12-22T11:30:47.255Z,25.17
2022-12-22T11:35:59.052Z,23.47
2022-12-22T11:41:12.412Z,22.02
2022-12-22T11:46:25.288Z,22.23
2022-12-22T11:51:55.188Z,20.08
2022-12-22T11:57:07.985Z,22.70
2022-12-22T12:02:34.656Z,24.23
2022-12-22T12:07:42.058Z,16.52
2022-12-22T12:12:52.985Z,16.30
2022-12-22T12:18:17.077Z,13.60
2022-12-22T12:23:41.388Z,10.88
2022-12-22T12:28:53.815Z,9.30
2022-12-22T12:34:02.273Z,13.05
2022-12-22T12:39:14.854Z,13.70
2022-12-22T12:44:24.473Z,13.68
2022-12-22T12:49:56.773Z,10.63
2022-12-22T12:55:31.406Z,10.35
2022-12-22T13:00:52.553Z,9.77
2022-12-22T13:06:02.231Z,10.23
2022-12-22T13:12:10.468Z,10.02
2022-12-22T13:17:41.787Z,7.50
2022-12-22T13:22:45.765Z,9.43
2022-12-22T13:27:50.657Z,22.73
2022-12-22T13:37:58.752Z,11.87
2022-12-22T13:43:06.160Z,13.45
2022-12-22T13:48:19.114Z,11.18
2022-12-22T13:54:07.769Z,12.88
2022-12-22T13:59:01.157Z,13.68
2022-12-22T14:04:07.958Z,12.57
2022-12-22T14:09:16.974Z,15.63
2022-12-22T14:14:23.546Z,13.55
2022-12-22T14:19:32.280Z,13.93
2022-12-22T14:24:43.370Z,13.25
2022-12-22T14:29:47.141Z,13.35
2022-12-22T14:34:55.559Z,13.30
2022-12-22T14:39:59.117Z,11.55
2022-12-22T14:45:02.852Z,13.73
2022-12-22T14:50:19.728Z,11.27
2022-12-22T14:55:27.487Z,12.85
2022-12-22T15:00:36.561Z,13.82
2022-12-22T15:05:44.717Z,9.98
2022-12-22T15:10:48.217Z,9.40
2022-12-22T15:15:53.538Z,10.82
2022-12-22T15:20:59.123Z,9.40
2022-12-22T15:26:02.463Z,9.60
2022-12-22T15:31:14.401Z,9.73
2022-12-22T15:36:19.300Z,9.13
2022-12-22T15:41:22.720Z,10.68
2022-12-22T15:46:26.269Z,11.32
2022-12-22T15:51:33.411Z,11.45
2022-12-22T15:56:37.530Z,10.52
2022-12-22T16:01:40.912Z,12.47
2022-12-22T16:06:46.450Z,14.10
2022-12-22T16:11:50.062Z,13.90
2022-12-22T16:16:53.539Z,13.20
2022-12-22T16:21:58.405Z,14.75
2022-12-22T16:32:18.042Z,17.05
2022-12-22T16:37:23.389Z,13.77
2022-12-22T16:47:47.430Z,19.95
2022-12-22T16:52:52.282Z,15.63
2022-12-22T17:03:04.323Z,14.23
2022-12-22T17:08:14.497Z,12.82
2022-12-22T17:13:19.144Z,15.88
2022-12-22T17:18:26.106Z,13.27
2022-12-22T17:23:35.133Z,13.52
2022-12-22T17:28:39.758Z,13.43
2022-12-22T17:33:43.132Z,20.60
2022-12-22T17:38:47.868Z,15.05
2022-12-22T17:43:51.304Z,16.38
2022-12-22T17:48:54.848Z,13.23
2022-12-22T17:54:00.676Z,14.07
2022-12-22T17:59:03.982Z,15.80
2022-12-22T18:04:09.965Z,17.35
2022-12-22T18:09:21.791Z,18.17
2022-12-22T18:14:25.200Z,20.13
2022-12-22T18:19:28.663Z,20.80
2022-12-22T18:24:33.627Z,21.38
2022-12-22T18:34:40.962Z,26.52
2022-12-22T18:39:46.447Z,30.33
2022-12-22T18:44:50.259Z,31.05
2022-12-22T18:49:53.650Z,34.58
2022-12-22T18:54:58.588Z,48.50
2022-12-22T19:05:14.777Z,50.33
2022-12-22T19:10:22.981Z,43.28
2022-12-22T19:15:30.128Z,43.55
2022-12-22T19:20:34.023Z,36.08
2022-12-22T19:25:38.924Z,38.35
2022-12-22T19:35:45.666Z,34.50
2022-12-22T19:40:51.932Z,32.15
2022-12-22T19:45:55.932Z,35.55
2022-12-22T19:50:59.531Z,28.60
2022-12-22T19:56:04.635Z,33.22
2022-12-22T20:01:11.752Z,33.05
2022-12-22T20:06:15.284Z,32.35
2022-12-22T20:11:21.311Z,43.70
2022-12-22T20:16:25.249Z,38.28
2022-12-22T20:21:31.121Z,45.80
2022-12-22T20:26:36.136Z,39.03
2022-12-22T20:36:44.404Z,40.35
2022-12-22T20:41:53.406Z,40.45
2022-12-22T20:46:56.981Z,30.45
2022-12-22T20:52:00.275Z,40.92
2022-12-22T20:57:05.293Z,39.33
2022-12-22T21:02:22.384Z,31.58
2022-12-22T21:07:25.945Z,40.70
2022-12-22T21:12:30.657Z,28.35
2022-12-22T21:17:34.227Z,23.20
2022-12-22T21:22:37.744Z,26.75
2022-12-22T21:27:45.098Z,28.52
2022-12-22T21:32:48.875Z,26.75
2022-12-22T21:37:53.943Z,31.75
2022-12-22T21:42:59.073Z,26.92
2022-12-22T21:48:02.363Z,26.33
2022-12-22T21:53:05.764Z,27.05
2022-12-22T21:58:15.275Z,20.58
2022-12-22T22:03:18.914Z,28.08
2022-12-22T22:08:22.272Z,23.45
2022-12-22T22:13:27.124Z,25.88
2022-12-22T22:18:30.710Z,22.67
2022-12-22T22:23:34.025Z,20.23
2022-12-22T22:28:38.855Z,22.48
2022-12-22T22:33:42.319Z,21.08
2022-12-22T22:38:45.697Z,22.27
2022-12-22T22:43:50.524Z,26.00
2022-12-22T22:48:53.862Z,18.95
2022-12-22T22:53:57.310Z,23.15
2022-12-22T22:59:02.034Z,23.08
2022-12-22T23:04:05.828Z,18.70
2022-12-22T23:09:09.593Z,20.98
2022-12-22T23:14:14.583Z,30.77
2022-12-22T23:24:21.550Z,21.08
2022-12-22T23:29:26.472Z,20.08
2022-12-22T23:39:33.057Z,18.27
2022-12-22T23:44:37.783Z,17.92
2022-12-22T23:49:41.184Z,17.52
2022-12-22T23:54:44.610Z,17.50
2022-12-22T23:59:49.480Z,13.45
